Time;durP1;ratioP1;P1;durP2;ratioP2;P2;SDS_P1;SDS_P2;PMS_P1;PMS_P2;Temp;Humidity;BMP_temperature;BMP_pressure;BME280_temperature;BME280_humidity;BME280_pressure;Samples;Min_cycle;Max_cycle;Signal;HPM_P1;HPM_P2
2021/11/18 09:19:16;;;;;;;13.50;6.40;;;;;;;8.74;94.19;100341.03;5080835;28;20942;-82
2021/11/18 09:21:45;;;;;;;12.37;5.27;;;;;;;9.28;91.80;100348.09;5079759;28;39826;-82
2021/11/18 09:24:18;;;;;;;13.77;6.73;;;;;;;9.71;87.20;100327.19;5048465;28;40742;-81
2021/11/18 09:26:49;;;;;;;8.90;4.67;;;;;;;10.19;84.03;100344.88;5082069;28;42909;-79
2021/11/18 09:29:19;;;;;;;9.70;5.17;;;;;;;10.41;82.33;100329.91;5068392;28;41163;-82
2021/11/18 09:32:03;;;;;;;8.13;6.00;;;;;;;10.77;80.27;100337.34;5067651;28;39001;-83
2021/11/18 09:34:32;;;;;;;7.77;4.20;;;;;;;10.84;78.30;100332.69;5057756;28;41060;-81
2021/11/18 09:37:00;;;;;;;6.93;4.90;;;;;;;11.09;78.04;100347.53;5084959;28;41776;-82
2021/11/18 09:39:29;;;;;;;8.30;5.20;;;;;;;11.23;76.34;100351.41;5066609;28;42267;-83
2021/11/18 09:42:04;;;;;;;10.00;5.20;;;;;;;11.33;74.87;100352.75;5085005;28;40833;-82
2021/11/18 09:45:04;;;;;;;6.83;4.40;;;;;;;11.46;74.49;100346.88;5068879;28;40823;-80
2021/11/18 09:48:18;;;;;;;10.20;5.30;;;;;;;11.74;73.62;100348.34;5102011;28;43629;-80
2021/11/18 09:51:05;;;;;;;8.43;4.77;;;;;;;11.99;72.40;100337.53;5069386;28;42232;-83
2021/11/18 09:53:52;;;;;;;9.03;4.93;;;;;;;12.64;70.47;100368.19;5055857;28;40422;-83
2021/11/18 09:56:29;;;;;;;8.07;4.97;;;;;;;12.91;68.00;100374.84;5064618;28;40321;-81
2021/11/18 09:59:18;;;;;;;7.10;4.50;;;;;;;13.18;67.37;100365.56;5081126;28;42800;-82
2021/11/18 10:02:19;;;;;;;7.97;4.30;;;;;;;13.45;66.10;100378.47;5068309;28;41012;-83
2021/11/18 10:04:55;;;;;;;6.67;4.37;;;;;;;13.49;64.80;100390.66;5048779;28;40304;-86
2021/11/18 10:07:30;;;;;;;6.00;4.20;;;;;;;13.39;64.15;100370.75;5047336;28;40826;-86
2021/11/18 10:10:22;;;;;;;9.60;5.20;;;;;;;13.42;65.04;100367.97;5029121;28;43201;-82
2021/11/18 10:13:17;;;;;;;10.30;5.90;;;;;;;13.30;64.68;100366.78;5069516;28;41012;-82
2021/11/18 10:15:48;;;;;;;7.13;4.67;;;;;;;13.24;64.38;100370.59;5064917;28;40016;-83
2021/11/18 10:18:22;;;;;;;7.80;4.37;;;;;;;13.26;64.88;100352.75;5065867;28;41976;-86
2021/11/18 10:20:55;;;;;;;6.33;4.63;;;;;;;13.50;64.20;100371.09;5068911;28;41549;-85
2021/11/18 10:23:25;;;;;;;6.60;4.40;;;;;;;13.58;62.93;100368.91;5056431;28;41012;-83
2021/11/18 10:25:56;;;;;;;8.00;4.23;;;;;;;13.67;63.48;100368.44;5048744;28;39591;-82
2021/11/18 10:28:32;;;;;;;7.60;4.70;;;;;;;13.52;62.98;100374.53;5063874;28;40842;-83
2021/11/18 10:31:16;;;;;;;8.37;3.90;;;;;;;13.33;62.84;100357.78;5050715;28;42785;-78
2021/11/18 10:33:52;;;;;;;5.13;4.30;;;;;;;13.25;62.85;100356.34;5050524;28;42197;-83
2021/11/18 10:36:35;;;;;;;6.67;4.53;;;;;;;13.16;62.46;100367.44;5033847;28;39034;-81
2021/11/18 10:39:14;;;;;;;8.20;4.80;;;;;;;13.44;62.73;100366.94;5034418;28;40949;-83
2021/11/18 10:41:52;;;;;;;6.63;4.27;;;;;;;13.47;62.38;100374.78;5035148;28;42137;-84
2021/11/18 10:44:23;;;;;;;5.70;3.90;;;;;;;13.38;62.50;100366.38;5034372;28;42125;-80
2021/11/18 10:47:03;;;;;;;7.47;4.53;;;;;;;13.37;62.66;100377.94;5048364;28;38622;-80
2021/11/18 10:49:42;;;;;;;6.93;4.47;;;;;;;13.39;62.56;100363.63;5071351;28;41774;-81
2021/11/18 10:52:19;;;;;;;6.03;3.67;;;;;;;13.34;63.17;100355.03;5059253;28;43053;-81
2021/11/18 10:54:51;;;;;;;6.30;4.60;;;;;;;13.26;62.20;100342.09;5051232;28;41940;-81
2021/11/18 10:57:21;;;;;;;6.37;4.03;;;;;;;13.32;61.70;100361.38;5061642;28;40270;-81
2021/11/18 10:59:51;;;;;;;4.97;4.20;;;;;;;13.47;61.38;100360.63;5054673;28;41043;-82
2021/11/18 11:02:24;;;;;;;5.63;3.93;;;;;;;14.07;61.51;100339.72;5069034;28;42518;-82
2021/11/18 11:04:56;;;;;;;6.03;4.17;;;;;;;14.44;59.55;100376.81;5051087;28;42839;-80
2021/11/18 11:07:36;;;;;;;7.77;5.70;;;;;;;15.40;57.33;100369.59;5034069;28;39979;-80
2021/11/18 11:10:09;;;;;;;7.67;3.97;;;;;;;15.76;55.64;100371.06;5051516;28;42234;-81
2021/11/18 11:12:42;;;;;;;6.60;4.67;;;;;;;15.68;55.97;100373.34;5050174;28;41996;-84
2021/11/18 11:15:28;;;;;;;5.97;3.93;;;;;;;16.29;53.37;100374.97;5055095;28;41783;-82
2021/11/18 11:18:20;;;;;;;4.17;3.60;;;;;;;17.46;50.31;100392.38;5053763;28;38781;-84
2021/11/18 11:20:56;;;;;;;5.17;3.83;;;;;;;17.40;49.56;100405.31;5054875;28;41981;-82
2021/11/18 11:23:30;;;;;;;5.70;3.50;;;;;;;16.79;51.40;100375.38;5058514;28;42965;-88
2021/11/18 11:26:21;;;;;;;4.37;3.60;;;;;;;16.28;52.70;100362.56;5031242;28;40963;-83
2021/11/18 11:29:03;;;;;;;6.87;3.73;;;;;;;16.03;53.53;100361.41;5030536;28;39030;-84
2021/11/18 11:31:43;;;;;;;4.20;3.80;;;;;;;15.69;54.03;100343.00;5014213;28;40742;-83
2021/11/18 11:34:32;;;;;;;3.77;3.03;;;;;;;15.50;54.65;100326.31;5066817;28;42816;-83
2021/11/18 11:37:13;;;;;;;3.53;3.23;;;;;;;15.30;54.96;100360.41;5071097;28;42179;-83
2021/11/18 11:39:46;;;;;;;5.90;3.10;;;;;;;14.96;55.27;100325.94;5050180;28;40121;-83
2021/11/18 11:42:45;;;;;;;4.63;3.60;;;;;;;14.78;55.74;100340.28;5031680;28;41804;-79
2021/11/18 11:45:21;;;;;;;3.73;3.17;;;;;;;14.62;56.00;100327.81;5030116;28;42748;-84
2021/11/18 11:48:36;;;;;;;3.77;2.57;;;;;;;14.56;56.07;100330.84;5030246;28;42290;-82
2021/11/18 11:51:26;;;;;;;5.00;3.03;;;;;;;14.49;55.45;100341.91;4996049;28;38690;-81
2021/11/18 11:54:16;;;;;;;6.07;3.63;;;;;;;14.24;55.54;100334.34;5045872;28;41880;-85
2021/11/18 11:56:46;;;;;;;2.60;2.37;;;;;;;14.17;56.44;100338.28;5053381;28;43672;-81
2021/11/18 11:59:22;;;;;;;3.73;2.60;;;;;;;14.03;55.62;100339.91;5050216;28;40859;-82
2021/11/18 12:01:57;;;;;;;3.93;2.70;;;;;;;13.88;56.19;100340.69;5033773;28;39057;-81
2021/11/18 12:04:30;;;;;;;4.67;2.57;;;;;;;13.77;56.41;100320.91;5033823;28;41644;-81
2021/11/18 12:07:03;;;;;;;3.93;2.97;;;;;;;13.64;55.86;100310.03;5070176;28;42690;-83
2021/11/18 12:09:39;;;;;;;4.60;2.63;;;;;;;13.71;54.86;100316.75;5052892;28;41078;-84
2021/11/18 12:12:19;;;;;;;2.73;2.03;;;;;;;13.66;55.97;100292.16;5059219;28;39839;-82
2021/11/18 12:14:49;;;;;;;7.53;3.50;;;;;;;13.60;55.91;100295.13;5033889;28;43200;-81
2021/11/18 12:17:22;;;;;;;4.27;2.97;;;;;;;13.54;55.26;100301.66;5031395;28;41849;-80
2021/11/18 12:20:07;;;;;;;3.93;2.50;;;;;;;13.46;56.15;100284.38;5033509;28;41123;-81
2021/11/18 12:22:53;;;;;;;5.20;2.50;;;;;;;13.43;56.65;100289.84;5049824;28;41017;-83
2021/11/18 12:26:05;;;;;;;4.77;3.00;;;;;;;13.39;56.70;100297.09;5066262;28;41817;-82
2021/11/18 12:28:37;;;;;;;7.60;2.40;;;;;;;13.29;56.99;100283.41;5014028;28;42048;-83
2021/11/18 12:31:29;;;;;;;3.37;2.37;;;;;;;13.27;56.39;100279.97;5049943;28;41123;-82
2021/11/18 12:34:01;;;;;;;3.80;2.53;;;;;;;13.29;57.03;100271.91;5066771;28;40655;-83
2021/11/18 12:37:07;;;;;;;6.30;2.50;;;;;;;13.40;55.99;100284.66;5028873;28;40630;-81
2021/11/18 12:39:47;;;;;;;2.97;2.30;;;;;;;13.42;56.70;100280.13;5029209;28;41482;-87
2021/11/18 12:43:03;;;;;;;3.37;3.07;;;;;;;13.36;56.32;100278.63;5028082;28;41731;-86
2021/11/18 12:45:51;;;;;;;5.80;3.03;;;;;;;13.29;56.47;100272.78;5028225;28;39041;-85
2021/11/18 12:49:06;;;;;;;5.83;3.33;;;;;;;13.25;55.88;100280.97;5028900;28;40750;-86
2021/11/18 12:52:13;;;;;;;4.97;3.63;;;;;;;13.22;56.39;100268.72;5040538;28;41544;-82
2021/11/18 12:55:18;;;;;;;4.07;2.73;;;;;;;13.30;55.86;100269.19;5049049;28;42363;-82
2021/11/18 12:57:48;;;;;;;4.03;3.13;;;;;;;13.28;55.92;100265.72;4955116;28;38794;-79
2021/11/18 13:00:42;;;;;;;5.33;3.30;;;;;;;13.24;55.81;100285.44;4971926;28;43114;-80
2021/11/18 13:03:13;;;;;;;3.83;2.97;;;;;;;13.15;56.32;100267.28;5003081;28;41824;-83
2021/11/18 13:05:49;;;;;;;3.43;2.47;;;;;;;13.13;56.89;100261.16;5037744;28;41246;-83
2021/11/18 13:08:54;;;;;;;4.07;2.67;;;;;;;13.07;56.60;100258.81;5057253;28;38850;-85
2021/11/18 13:11:46;;;;;;;4.67;2.80;;;;;;;12.85;57.24;100250.19;5065434;28;43275;-82
2021/11/18 13:14:58;;;;;;;4.80;2.80;;;;;;;12.78;57.11;100254.06;5048718;28;41598;-80
2021/11/18 13:17:42;;;;;;;5.73;3.50;;;;;;;12.67;57.71;100241.31;5040238;28;41168;-83
2021/11/18 13:20:42;;;;;;;5.60;3.57;;;;;;;12.63;57.41;100260.13;5048523;28;38702;-86
2021/11/18 13:23:54;;;;;;;5.30;3.23;;;;;;;12.64;58.09;100254.75;5064461;28;40783;-81
2021/11/18 13:26:24;;;;;;;6.03;3.40;;;;;;;12.65;58.05;100255.59;5067964;28;43694;-79
2021/11/18 13:29:11;;;;;;;3.87;3.03;;;;;;;12.59;58.07;100252.34;5068955;28;42149;-80
2021/11/18 13:31:43;;;;;;;3.33;2.70;;;;;;;12.61;58.25;100251.41;5067904;28;40897;-79
2021/11/18 13:34:16;;;;;;;4.33;3.17;;;;;;;12.68;58.48;100266.09;5032744;28;40662;-79
2021/11/18 13:36:45;;;;;;;4.13;3.20;;;;;;;12.65;58.01;100255.59;5048144;28;41953;-80
2021/11/18 13:39:22;;;;;;;5.17;3.00;;;;;;;12.59;57.75;100249.66;5049192;28;42660;-81
2021/11/18 13:41:52;;;;;;;7.33;3.10;;;;;;;12.56;57.89;100265.75;5031570;28;38845;-82
2021/11/18 13:44:31;;;;;;;4.50;2.80;;;;;;;12.53;58.08;100249.97;5048295;28;41700;-84
2021/11/18 13:47:05;;;;;;;4.30;3.27;;;;;;;12.50;58.22;100254.53;5047301;28;43042;-81
2021/11/18 13:49:35;;;;;;;3.47;2.97;;;;;;;12.50;57.85;100260.72;5048896;28;42305;-79
2021/11/18 13:52:14;;;;;;;4.47;3.33;;;;;;;12.25;57.63;100228.28;5049728;28;39718;-80
2021/11/18 13:54:53;;;;;;;8.00;3.60;;;;;;;12.34;57.51;100265.06;5032301;28;41480;-82
2021/11/18 13:57:34;;;;;;;3.73;2.87;;;;;;;12.28;58.14;100254.72;5062144;28;42037;-80
2021/11/18 14:00:11;;;;;;;3.50;3.13;;;;;;;12.38;58.32;100261.31;5051798;28;41369;-80
2021/11/18 14:02:48;;;;;;;3.77;3.03;;;;;;;12.34;57.44;100270.38;5054795;28;40461;-81
2021/11/18 14:05:19;;;;;;;4.73;3.23;;;;;;;12.28;57.83;100273.31;5038519;28;40802;-82
2021/11/18 14:07:55;;;;;;;4.57;3.27;;;;;;;12.07;57.71;100255.72;5034697;28;41859;-88
2021/11/18 14:10:28;;;;;;;6.57;3.73;;;;;;;12.09;57.77;100248.56;5035474;28;41199;-83
2021/11/18 14:13:00;;;;;;;4.57;2.90;;;;;;;12.33;58.11;100263.34;5034443;28;38989;-84
2021/11/18 14:15:32;;;;;;;3.17;2.63;;;;;;;12.55;56.35;100264.03;5040318;28;40868;-82
2021/11/18 14:18:12;;;;;;;4.87;2.90;;;;;;;12.57;56.10;100267.47;5062869;28;42648;-82
2021/11/18 14:20:54;;;;;;;5.43;3.43;;;;;;;12.62;56.60;100259.28;5057712;28;42256;-80
2021/11/18 14:23:30;;;;;;;3.33;2.83;;;;;;;12.68;56.72;100261.66;5054778;28;39080;-81
2021/11/18 14:26:37;;;;;;;3.53;2.60;;;;;;;12.73;56.57;100261.44;5050617;28;42229;-79
2021/11/18 14:29:31;;;;;;;4.23;3.07;;;;;;;12.71;55.98;100279.25;5071283;28;42846;-81
2021/11/18 14:32:09;;;;;;;3.60;2.93;;;;;;;12.65;56.96;100271.56;5054925;28;41081;-83
2021/11/18 14:34:39;;;;;;;3.97;2.97;;;;;;;12.45;56.35;100284.00;5056797;28;41356;-84
2021/11/18 14:37:32;;;;;;;4.83;3.03;;;;;;;12.36;57.00;100289.78;5052681;28;40351;-80
2021/11/18 14:40:01;;;;;;;3.60;2.43;;;;;;;12.16;57.35;100265.91;5051098;28;42889;-82
2021/11/18 14:42:49;;;;;;;4.13;2.87;;;;;;;12.14;57.52;100278.41;5050574;28;42845;-84
2021/11/18 14:45:29;;;;;;;4.20;3.33;;;;;;;11.97;57.85;100267.72;5050830;28;40231;-80
2021/11/18 14:48:16;;;;;;;6.17;4.17;;;;;;;11.75;58.78;100258.03;5050632;28;41893;-80
2021/11/18 14:50:57;;;;;;;4.97;3.33;;;;;;;11.54;59.50;100253.66;5035088;28;41866;-80
2021/11/18 14:53:28;;;;;;;5.33;3.40;;;;;;;11.33;60.20;100254.59;5037795;28;40820;-88
2021/11/18 14:56:05;;;;;;;4.60;2.60;;;;;;;11.14;60.66;100250.09;5054744;28;38687;-82
2021/11/18 14:58:33;;;;;;;4.93;3.77;;;;;;;10.98;61.10;100241.06;5053971;28;41213;-80
2021/11/18 15:01:08;;;;;;;4.67;2.57;;;;;;;10.85;61.40;100239.84;5070439;28;42950;-80
2021/11/18 15:03:48;;;;;;;2.90;2.57;;;;;;;10.70;62.11;100245.78;5058059;28;41107;-79
2021/11/18 15:06:17;;;;;;;3.33;2.57;;;;;;;10.56;62.24;100242.81;5030442;28;38978;-79
2021/11/18 15:08:45;;;;;;;4.47;2.90;;;;;;;10.41;62.29;100236.34;5028702;28;42030;-79
2021/11/18 15:11:13;;;;;;;6.10;2.73;;;;;;;10.21;63.05;100223.91;5049994;28;42742;-85
2021/11/18 15:13:41;;;;;;;4.07;3.10;;;;;;;10.07;63.00;100236.78;5032972;28;40889;-82
2021/11/18 15:16:10;;;;;;;4.17;2.90;;;;;;;10.04;63.59;100255.41;5049758;28;39075;-79
2021/11/18 15:18:38;;;;;;;6.53;3.47;;;;;;;9.92;63.82;100245.28;5032635;28;40752;-79
2021/11/18 15:21:05;;;;;;;4.00;2.63;;;;;;;9.71;63.56;100223.16;5049843;28;43757;-79
2021/11/18 15:23:33;;;;;;;5.60;3.10;;;;;;;9.69;63.92;100223.22;5032694;28;41191;-79
2021/11/18 15:26:00;;;;;;;5.30;3.00;;;;;;;9.57;64.35;100218.38;5060269;28;39787;-79
2021/11/18 15:28:28;;;;;;;5.60;3.70;;;;;;;9.32;65.06;100202.53;5041408;28;41013;-79
2021/11/18 15:30:59;;;;;;;5.60;3.57;;;;;;;9.36;65.35;100221.81;5048640;28;42088;-80
2021/11/18 15:33:31;;;;;;;5.53;3.13;;;;;;;9.19;65.61;100210.94;5032699;28;41013;-79
2021/11/18 15:35:58;;;;;;;4.83;3.10;;;;;;;9.24;66.42;100240.75;5048695;28;40091;-78
2021/11/18 15:38:27;;;;;;;4.90;3.03;;;;;;;9.23;66.45;100250.44;5031413;28;42077;-78
2021/11/18 15:40:56;;;;;;;4.27;3.10;;;;;;;9.30;66.41;100256.38;5048263;28;42682;-78
2021/11/18 15:43:26;;;;;;;5.53;3.33;;;;;;;9.25;66.89;100221.31;5059550;28;42181;-81
2021/11/18 15:46:14;;;;;;;4.67;3.20;;;;;;;9.33;67.50;100230.69;5066140;28;40278;-84
2021/11/18 15:48:44;;;;;;;5.10;2.73;;;;;;;9.39;66.63;100231.41;5033164;28;42563;-83
2021/11/18 15:51:13;;;;;;;5.33;3.20;;;;;;;9.49;67.22;100251.31;5035579;28;41797;-81
2021/11/18 15:53:41;;;;;;;5.83;3.27;;;;;;;9.51;66.55;100250.34;5064689;28;43169;-82
2021/11/18 15:56:13;;;;;;;4.67;3.00;;;;;;;9.48;67.57;100231.94;5048173;28;40864;-83
2021/11/18 15:58:43;;;;;;;5.50;3.73;;;;;;;9.57;67.15;100244.81;5032330;28;40794;-80
2021/11/18 16:01:13;;;;;;;7.97;3.83;;;;;;;9.55;67.14;100240.50;5048754;28;43945;-81
2021/11/18 16:03:43;;;;;;;5.63;3.43;;;;;;;9.56;67.22;100229.88;5036978;28;41406;-81
2021/11/18 16:06:12;;;;;;;6.67;3.73;;;;;;;9.39;67.07;100213.75;5046648;28;38453;-80
2021/11/18 16:08:40;;;;;;;5.83;3.80;;;;;;;9.32;67.46;100214.88;5063651;28;42103;-81
2021/11/18 16:11:11;;;;;;;3.60;2.60;;;;;;;9.40;67.52;100228.69;5066210;28;41999;-82
2021/11/18 16:13:49;;;;;;;6.90;3.97;;;;;;;9.49;67.62;100243.38;5095429;28;41249;-80
2021/11/18 16:16:19;;;;;;;5.03;3.13;;;;;;;9.47;67.37;100238.13;5045968;28;39508;-81
2021/11/18 16:18:50;;;;;;;4.20;2.80;;;;;;;9.33;67.58;100216.63;5069941;28;40491;-81
2021/11/18 16:21:21;;;;;;;6.37;3.40;;;;;;;9.49;67.68;100246.88;5043232;28;42571;-83
2021/11/18 16:23:49;;;;;;;5.43;3.63;;;;;;;9.40;67.71;100233.09;5035250;28;42423;-83
2021/11/18 16:26:19;;;;;;;3.90;2.77;;;;;;;9.34;67.77;100220.97;5034388;28;38960;-85
2021/11/18 16:28:52;;;;;;;5.97;4.13;;;;;;;9.42;68.14;100239.22;5037326;28;40834;-81
2021/11/18 16:31:20;;;;;;;6.30;3.33;;;;;;;9.37;68.35;100231.47;5048298;28;43228;-79
2021/11/18 16:33:49;;;;;;;5.37;3.10;;;;;;;9.34;68.23;100236.84;5048564;28;41137;-83
2021/11/18 16:36:17;;;;;;;3.13;2.43;;;;;;;9.18;68.30;100231.22;5056355;28;40713;-85
2021/11/18 16:38:45;;;;;;;5.73;3.10;;;;;;;9.17;68.36;100239.22;5039795;28;40969;-82
2021/11/18 16:41:22;;;;;;;5.67;3.47;;;;;;;9.07;68.48;100232.53;5032186;28;41922;-84
2021/11/18 16:43:50;;;;;;;4.10;3.30;;;;;;;9.17;68.79;100250.66;5048368;28;42541;-82
2021/11/18 16:46:18;;;;;;;6.90;3.23;;;;;;;9.12;68.79;100257.03;5048711;28;40947;-80
2021/11/18 16:48:47;;;;;;;6.03;3.50;;;;;;;9.04;69.32;100259.91;5031557;28;40971;-80
2021/11/18 16:51:28;;;;;;;5.93;3.63;;;;;;;9.06;69.18;100266.00;5050041;28;43659;-80
2021/11/18 16:53:56;;;;;;;6.03;3.03;;;;;;;9.09;69.33;100279.13;5031844;28;41334;-80
2021/11/18 16:56:26;;;;;;;5.73;3.40;;;;;;;9.15;68.86;100296.56;5047394;28;40209;-80
2021/11/18 16:58:54;;;;;;;4.77;3.40;;;;;;;9.21;69.23;100296.34;5024287;28;42164;-81
2021/11/18 17:01:25;;;;;;;7.30;3.10;;;;;;;9.23;69.34;100299.81;5048200;28;42928;-86
2021/11/18 17:03:53;;;;;;;4.07;3.17;;;;;;;9.10;69.46;100274.72;5065044;28;41489;-82
2021/11/18 17:06:23;;;;;;;5.00;3.33;;;;;;;9.17;69.62;100282.38;5030781;28;39228;-82
2021/11/18 17:08:52;;;;;;;7.30;3.60;;;;;;;9.26;69.17;100300.56;5033175;28;40986;-81
2021/11/18 17:11:24;;;;;;;6.20;3.60;;;;;;;9.26;69.26;100291.78;5031516;28;41824;-85
2021/11/18 17:13:52;;;;;;;4.43;3.43;;;;;;;9.14;69.40;100274.56;5031449;28;40944;-81
2021/11/18 17:16:19;;;;;;;9.33;4.17;;;;;;;9.19;69.78;100277.91;5047547;28;39162;-79
2021/11/18 17:18:49;;;;;;;5.93;3.60;;;;;;;9.21;69.59;100288.41;5048276;28;41069;-86
2021/11/18 17:21:34;;;;;;;8.43;4.70;;;;;;;9.28;70.09;100292.56;5047538;28;42403;-85
2021/11/18 17:24:02;;;;;;;5.30;3.43;;;;;;;9.35;69.61;100313.47;5048787;28;42950;-83
2021/11/18 17:26:31;;;;;;;6.10;3.60;;;;;;;9.37;69.23;100326.66;5030303;28;38885;-83
2021/11/18 17:29:01;;;;;;;6.77;3.53;;;;;;;9.31;69.24;100316.25;5029395;28;41058;-79
2021/11/18 17:31:32;;;;;;;4.30;3.07;;;;;;;9.43;69.34;100320.25;5031477;28;41988;-80
2021/11/18 17:34:00;;;;;;;6.90;3.80;;;;;;;9.38;69.25;100312.50;5064788;28;42565;-84
2021/11/18 17:36:30;;;;;;;4.33;2.83;;;;;;;9.41;69.56;100322.97;5030633;28;39166;-80
2021/11/18 17:39:01;;;;;;;10.63;5.47;;;;;;;9.52;69.25;100344.59;5048856;28;42983;-80
2021/11/18 17:41:30;;;;;;;6.53;3.83;;;;;;;9.54;69.03;100345.44;5051838;28;41902;-80
2021/11/18 17:43:58;;;;;;;4.43;3.50;;;;;;;9.46;69.07;100336.03;5052051;28;41406;-81
2021/11/18 17:46:33;;;;;;;6.67;3.77;;;;;;;9.55;69.23;100356.88;5052136;28;39769;-80
2021/11/18 17:49:02;;;;;;;4.43;2.57;;;;;;;9.58;69.21;100352.34;5051851;28;40166;-81
2021/11/18 17:51:33;;;;;;;5.30;2.97;;;;;;;9.58;68.98;100339.13;5051955;28;42987;-80
2021/11/18 17:54:03;;;;;;;4.13;2.90;;;;;;;9.59;68.99;100338.22;5035476;28;41408;-81
2021/11/18 17:56:33;;;;;;;4.70;2.80;;;;;;;9.57;69.15;100334.75;5051306;28;38471;-81
2021/11/18 17:59:02;;;;;;;4.40;3.43;;;;;;;9.46;68.89;100317.53;5051892;28;42125;-81
2021/11/18 18:01:34;;;;;;;4.33;3.27;;;;;;;9.51;69.31;100321.75;5051182;28;41778;-80
2021/11/18 18:04:03;;;;;;;6.43;4.10;;;;;;;9.43;69.01;100314.97;5066825;28;41001;-81
2021/11/18 18:06:33;;;;;;;7.50;3.57;;;;;;;9.27;69.38;100304.91;5020399;28;38935;-81
2021/11/18 18:09:02;;;;;;;6.57;3.30;;;;;;;9.27;69.47;100319.94;5025327;28;40992;-80
2021/11/18 18:11:30;;;;;;;3.97;3.10;;;;;;;9.33;69.34;100327.66;5049547;28;42766;-81
2021/11/18 18:14:01;;;;;;;6.00;3.80;;;;;;;9.31;69.37;100333.00;5051594;28;42469;-80
2021/11/18 18:16:31;;;;;;;6.40;3.33;;;;;;;9.30;69.29;100325.09;5085317;28;39991;-81
2021/11/18 18:19:00;;;;;;;5.50;3.60;;;;;;;9.21;69.46;100314.84;5042392;28;42159;-80
2021/11/18 18:21:28;;;;;;;5.60;3.30;;;;;;;9.16;69.37;100316.78;5045100;28;43695;-80
2021/11/18 18:23:57;;;;;;;6.63;3.70;;;;;;;9.20;69.46;100331.63;5017489;28;41047;-80
2021/11/18 18:26:28;;;;;;;4.70;3.27;;;;;;;9.09;69.50;100317.91;5030046;28;38563;-82
2021/11/18 18:28:57;;;;;;;5.30;2.80;;;;;;;8.97;69.93;100320.03;5040253;28;40681;-81
2021/11/18 18:31:27;;;;;;;6.40;4.30;;;;;;;8.88;70.06;100320.34;5038242;28;43778;-80
2021/11/18 18:33:57;;;;;;;4.93;3.30;;;;;;;8.78;70.38;100315.41;5064453;28;41007;-81
